Time;durP1;ratioP1;P1;durP2;ratioP2;P2;SDS_P1;SDS_P2;PMS_P1;PMS_P2;Temp;Humidity;BMP_temperature;BMP_pressure;BME280_temperature;BME280_humidity;BME280_pressure;Samples;Min_cycle;Max_cycle;Signal;HPM_P1;HPM_P2
2021/07/11 00:00:11;;;;;;;85.30;14.10;;;14.20;99.90;;;;;;5021248;28;20049;-83
2021/07/11 00:02:39;;;;;;;141.60;14.77;;;14.20;99.90;;;;;;5013783;28;20045;-83
2021/07/11 00:05:08;;;;;;;133.38;14.02;;;14.20;99.90;;;;;;5032193;28;20480;-83
2021/07/11 00:07:35;;;;;;;85.95;12.25;;;14.20;99.90;;;;;;5011746;28;20048;-83
2021/07/11 00:10:05;;;;;;;55.10;11.20;;;14.10;99.90;;;;;;5012753;28;20046;-83
2021/07/11 00:12:32;;;;;;;27.20;11.13;;;14.10;99.90;;;;;;5017408;28;20055;-83
2021/07/11 00:14:59;;;;;;;31.42;11.30;;;14.10;99.90;;;;;;5030345;28;20041;-83
2021/07/11 00:17:26;;;;;;;34.33;10.60;;;14.10;99.90;;;;;;5012286;28;20048;-83
2021/07/11 00:19:55;;;;;;;24.63;10.65;;;14.10;99.90;;;;;;5037193;28;20565;-84
2021/07/11 00:22:22;;;;;;;20.40;10.20;;;14.00;99.90;;;;;;5038257;28;20045;-83
2021/07/11 00:24:50;;;;;;;16.58;10.50;;;14.00;99.90;;;;;;5014024;28;20046;-83
2021/07/11 00:27:18;;;;;;;28.20;11.85;;;14.00;99.90;;;;;;5021608;28;20374;-83
2021/07/11 00:29:45;;;;;;;22.08;11.02;;;14.00;99.90;;;;;;5011124;28;20052;-83
2021/07/11 00:32:12;;;;;;;18.90;11.85;;;14.00;99.90;;;;;;5012496;28;20053;-83
2021/07/11 00:34:39;;;;;;;27.35;11.75;;;14.00;99.90;;;;;;5017753;28;20049;-83
2021/07/11 00:37:06;;;;;;;82.20;12.43;;;14.00;99.90;;;;;;5010922;28;20475;-83
2021/07/11 00:39:33;;;;;;;41.13;11.63;;;14.00;99.90;;;;;;5011058;28;20134;-83
2021/07/11 00:42:00;;;;;;;85.57;11.32;;;14.00;99.90;;;;;;5046178;28;20042;-83
2021/07/11 00:44:27;;;;;;;92.97;11.35;;;13.90;99.90;;;;;;5012513;28;20041;-83
2021/07/11 00:46:54;;;;;;;62.53;11.20;;;14.00;99.90;;;;;;5015212;28;20057;-83
2021/07/11 00:49:21;;;;;;;83.38;12.73;;;13.90;99.90;;;;;;5012612;28;20401;-83
2021/07/11 00:51:48;;;;;;;117.15;13.73;;;13.90;99.90;;;;;;5014089;28;20055;-83
2021/07/11 00:54:15;;;;;;;265.88;15.45;;;13.90;99.90;;;;;;5008336;28;20052;-83
2021/07/11 00:56:44;;;;;;;167.70;14.23;;;13.90;99.90;;;;;;5015395;28;20395;-83
2021/07/11 00:59:12;;;;;;;45.65;12.63;;;13.90;99.90;;;;;;5027460;28;20498;-83
2021/07/11 01:02:13;;;;;;;45.33;13.10;;;13.80;99.90;;;;;;5013500;28;20049;-83
2021/07/11 01:04:54;;;;;;;172.40;14.10;;;13.90;99.90;;;;;;5030457;28;20128;-83
2021/07/11 01:07:32;;;;;;;18.02;10.65;;;13.90;99.90;;;;;;5010180;28;20050;-83
2021/07/11 01:10:18;;;;;;;20.95;11.93;;;13.80;99.90;;;;;;5031106;28;20049;-83
2021/07/11 01:12:47;;;;;;;18.33;11.40;;;13.90;99.90;;;;;;5008720;28;20041;-83
2021/07/11 01:15:15;;;;;;;56.13;9.80;;;13.90;99.90;;;;;;5013335;28;20042;-83
2021/07/11 01:17:42;;;;;;;76.13;10.40;;;13.80;99.90;;;;;;4996208;28;20041;-83
2021/07/11 01:20:35;;;;;;;139.45;11.52;;;13.80;99.90;;;;;;5014119;28;20045;-84
2021/07/11 01:23:06;;;;;;;121.68;10.82;;;13.80;99.90;;;;;;5030595;28;20061;-84
2021/07/11 01:25:49;;;;;;;126.93;10.00;;;13.80;99.90;;;;;;5015919;28;20042;-84
2021/07/11 01:28:20;;;;;;;77.75;9.70;;;13.80;99.90;;;;;;5032166;28;20060;-83
2021/07/11 01:30:50;;;;;;;116.38;10.00;;;13.80;99.90;;;;;;5013681;28;20045;-84
2021/07/11 01:33:19;;;;;;;105.28;9.38;;;13.90;99.90;;;;;;5016515;28;20037;-84
2021/07/11 01:35:48;;;;;;;72.20;8.13;;;13.90;99.90;;;;;;5032239;28;20395;-83
2021/07/11 01:38:16;;;;;;;142.57;9.05;;;13.90;99.90;;;;;;5029996;28;20049;-84
2021/07/11 01:40:46;;;;;;;119.80;8.63;;;13.90;99.90;;;;;;5021245;28;20064;-83
2021/07/11 01:43:17;;;;;;;112.93;7.68;;;13.90;99.90;;;;;;5019788;28;20042;-83
2021/07/11 01:45:47;;;;;;;135.60;8.63;;;13.90;99.90;;;;;;5015387;28;20041;-83
2021/07/11 01:48:15;;;;;;;40.35;7.60;;;13.90;99.90;;;;;;5023412;28;20045;-83
2021/07/11 01:50:43;;;;;;;64.07;7.63;;;13.90;99.90;;;;;;5014454;28;20042;-84
2021/07/11 01:53:11;;;;;;;39.63;8.23;;;13.90;99.90;;;;;;5016521;28;20064;-83
2021/07/11 01:55:38;;;;;;;33.03;8.15;;;13.90;99.90;;;;;;5016647;28;20037;-83
2021/07/11 01:58:05;;;;;;;17.60;8.02;;;13.90;99.90;;;;;;5014279;28;20072;-83
2021/07/11 02:00:32;;;;;;;15.70;7.10;;;13.90;99.90;;;;;;5014358;28;20050;-83
2021/07/11 02:02:59;;;;;;;24.70;6.88;;;13.90;99.90;;;;;;5016670;28;20391;-83
2021/07/11 02:05:26;;;;;;;26.38;7.63;;;14.00;99.90;;;;;;5015015;28;20079;-83
2021/07/11 02:07:53;;;;;;;27.52;8.00;;;14.00;99.90;;;;;;5014861;28;20045;-83
2021/07/11 02:10:21;;;;;;;52.63;7.53;;;14.00;99.90;;;;;;5012910;28;20069;-83
2021/07/11 02:12:57;;;;;;;79.40;7.18;;;14.00;99.90;;;;;;5015092;28;20041;-83
2021/07/11 02:15:29;;;;;;;58.80;5.85;;;14.00;99.90;;;;;;5012201;28;20100;-83
2021/07/11 02:17:58;;;;;;;58.92;5.50;;;14.00;99.90;;;;;;5016996;28;20053;-83
2021/07/11 02:20:26;;;;;;;141.40;7.78;;;13.90;99.90;;;;;;5015756;28;20419;-83
2021/07/11 02:22:56;;;;;;;156.80;9.02;;;13.90;99.90;;;;;;5015743;28;20046;-83
2021/07/11 02:25:23;;;;;;;69.05;6.10;;;13.90;99.90;;;;;;5031972;28;20049;-83
2021/07/11 02:27:51;;;;;;;116.68;8.02;;;13.80;99.90;;;;;;5015885;28;20053;-83
2021/07/11 02:30:25;;;;;;;92.03;7.50;;;13.80;99.90;;;;;;5012457;28;20041;-83
2021/07/11 02:33:00;;;;;;;79.60;7.47;;;13.80;99.90;;;;;;5028181;28;20042;-83
2021/07/11 02:35:38;;;;;;;120.25;8.88;;;13.80;99.90;;;;;;5033096;28;20046;-83
2021/07/11 02:38:05;;;;;;;77.00;8.15;;;13.80;99.90;;;;;;5030176;28;20045;-83
2021/07/11 02:40:34;;;;;;;83.63;6.93;;;13.80;99.90;;;;;;5014947;28;20041;-83
2021/07/11 02:43:08;;;;;;;95.75;7.65;;;13.80;99.90;;;;;;5010081;28;20045;-83
2021/07/11 02:45:36;;;;;;;67.80;7.40;;;13.80;99.90;;;;;;5022736;28;20111;-83
2021/07/11 02:48:07;;;;;;;83.13;7.30;;;13.80;99.90;;;;;;5030538;28;20104;-83
2021/07/11 02:50:35;;;;;;;100.22;7.40;;;13.80;99.90;;;;;;5025360;28;20042;-83
2021/07/11 02:53:03;;;;;;;64.25;6.07;;;13.70;99.90;;;;;;5029788;28;20041;-83
2021/07/11 02:55:36;;;;;;;106.30;7.18;;;13.70;99.90;;;;;;5021284;28;20037;-83
2021/07/11 02:58:13;;;;;;;133.13;7.18;;;13.70;99.90;;;;;;5013471;28;20579;-83
2021/07/11 03:00:42;;;;;;;110.78;7.15;;;13.70;99.90;;;;;;5030602;28;20471;-83
2021/07/11 03:03:11;;;;;;;112.85;7.78;;;13.70;99.90;;;;;;5031773;28;20053;-83
2021/07/11 03:05:38;;;;;;;69.80;7.75;;;13.70;99.90;;;;;;5014656;28;20045;-83
2021/07/11 03:08:07;;;;;;;91.43;7.35;;;13.70;99.90;;;;;;5030373;28;20510;-83
2021/07/11 03:10:35;;;;;;;66.82;7.35;;;13.60;99.90;;;;;;5032255;28;20041;-83
2021/07/11 03:13:03;;;;;;;51.22;7.47;;;13.70;99.90;;;;;;5016255;28;20057;-83
2021/07/11 03:15:30;;;;;;;36.10;7.20;;;13.70;99.90;;;;;;5021673;28;20045;-84
2021/07/11 03:17:59;;;;;;;36.67;7.90;;;13.70;99.90;;;;;;5013692;28;20045;-83
2021/07/11 03:20:28;;;;;;;59.22;7.20;;;13.70;99.90;;;;;;5028630;28;20049;-83
2021/07/11 03:22:56;;;;;;;37.38;7.95;;;13.70;99.90;;;;;;5010172;28;20057;-83
2021/07/11 03:25:24;;;;;;;51.50;9.02;;;13.70;99.90;;;;;;5011200;28;20103;-83
2021/07/11 03:27:52;;;;;;;37.87;7.47;;;13.70;99.90;;;;;;5017978;28;20483;-83
2021/07/11 03:30:21;;;;;;;61.70;7.82;;;13.70;99.90;;;;;;5015974;28;20041;-83
2021/07/11 03:33:00;;;;;;;32.28;7.72;;;13.70;99.90;;;;;;5014396;28;20045;-83
2021/07/11 03:35:51;;;;;;;27.25;7.85;;;13.80;99.90;;;;;;5032049;28;20041;-83
2021/07/11 03:38:24;;;;;;;21.02;7.10;;;13.70;99.90;;;;;;5013583;28;20392;-83
2021/07/11 03:40:54;;;;;;;23.65;8.40;;;13.70;99.90;;;;;;5021472;28;20054;-83
2021/07/11 03:43:24;;;;;;;45.83;8.55;;;13.70;99.90;;;;;;5009314;28;20042;-83
2021/07/11 03:45:58;;;;;;;38.55;8.63;;;13.80;99.90;;;;;;5010303;28;20355;-83
2021/07/11 03:48:31;;;;;;;57.15;8.80;;;13.80;99.90;;;;;;5016219;28;20057;-83
2021/07/11 03:51:02;;;;;;;29.42;8.40;;;13.80;99.90;;;;;;5013022;28;20090;-83
2021/07/11 03:53:36;;;;;;;87.45;8.75;;;13.80;99.90;;;;;;5016490;28;20053;-83
2021/07/11 03:56:05;;;;;;;36.47;9.38;;;13.80;99.90;;;;;;5015325;28;20391;-83
2021/07/11 03:58:40;;;;;;;82.55;9.73;;;13.80;99.90;;;;;;5016315;28;20041;-83
2021/07/11 04:01:08;;;;;;;51.70;9.65;;;13.90;99.90;;;;;;5015308;28;20045;-84
2021/07/11 04:03:38;;;;;;;24.67;9.67;;;13.80;99.90;;;;;;5009969;28;20041;-83
2021/07/11 04:06:10;;;;;;;138.10;11.60;;;13.80;99.90;;;;;;5021253;28;20770;-83
2021/07/11 04:08:39;;;;;;;137.25;10.45;;;13.90;99.90;;;;;;5013738;28;20104;-83
2021/07/11 04:11:07;;;;;;;;;;;13.90;99.90;;;;;;5029750;28;20050;-83
2021/07/11 04:13:34;;;;;;;120.53;10.75;;;13.90;99.90;;;;;;5013843;28;19925;-83
2021/07/11 04:16:05;;;;;;;190.90;12.77;;;13.90;99.90;;;;;;5018134;28;20571;-83
2021/07/11 04:18:42;;;;;;;166.35;12.57;;;13.90;99.90;;;;;;5011840;28;20379;-83
2021/07/11 04:21:11;;;;;;;160.38;12.13;;;13.90;99.90;;;;;;5024680;28;20054;-84
2021/07/11 04:23:38;;;;;;;;;;;13.90;99.90;;;;;;5014323;28;20053;-84
2021/07/11 04:26:05;;;;;;;187.93;12.77;;;13.90;99.90;;;;;;5013564;28;19921;-83
2021/07/11 04:28:36;;;;;;;190.30;11.63;;;13.90;99.90;;;;;;5013050;28;20048;-83
2021/07/11 04:31:05;;;;;;;169.07;11.70;;;13.90;99.90;;;;;;5013147;28;20061;-83
2021/07/11 04:33:32;;;;;;;127.78;11.40;;;13.90;99.90;;;;;;5029948;28;20049;-83
2021/07/11 04:36:00;;;;;;;202.05;12.32;;;13.90;99.90;;;;;;5011962;28;20045;-83
2021/07/11 04:38:27;;;;;;;111.28;11.68;;;13.90;99.90;;;;;;4994194;28;20049;-83
2021/07/11 04:40:55;;;;;;;139.43;11.82;;;13.90;99.90;;;;;;5017711;28;20051;-83
2021/07/11 04:43:22;;;;;;;165.38;12.43;;;14.00;99.90;;;;;;5014135;28;20060;-83
2021/07/11 04:45:49;;;;;;;102.88;11.82;;;13.90;99.90;;;;;;5030448;28;20053;-83
2021/07/11 04:48:17;;;;;;;57.33;11.32;;;14.00;99.90;;;;;;5017095;28;20042;-83
2021/07/11 04:50:45;;;;;;;132.75;12.75;;;14.00;99.90;;;;;;5011791;28;20053;-83
2021/07/11 04:53:13;;;;;;;143.93;12.70;;;14.00;99.90;;;;;;5038761;28;20426;-82
2021/07/11 04:55:43;;;;;;;134.55;13.10;;;14.00;99.90;;;;;;5016177;28;20479;-83
2021/07/11 04:58:10;;;;;;;61.58;12.20;;;14.00;99.90;;;;;;5010452;28;20045;-83
2021/07/11 05:00:37;;;;;;;114.25;12.77;;;14.10;99.90;;;;;;5011279;28;20049;-83
2021/07/11 05:03:04;;;;;;;68.47;12.10;;;14.10;99.90;;;;;;5010833;28;20483;-83
2021/07/11 05:05:34;;;;;;;77.43;12.13;;;14.10;99.90;;;;;;5029610;28;20041;-83
2021/07/11 05:08:05;;;;;;;97.45;12.90;;;14.10;99.90;;;;;;5011771;28;20048;-83
2021/07/11 05:10:32;;;;;;;179.18;13.50;;;14.20;99.90;;;;;;5010908;28;20041;-83
2021/07/11 05:12:59;;;;;;;78.97;12.05;;;14.10;99.90;;;;;;5008964;28;20072;-82
2021/07/11 05:15:28;;;;;;;94.38;12.75;;;14.20;99.90;;;;;;5027336;28;20107;-83
2021/07/11 05:17:55;;;;;;;92.22;13.05;;;14.20;99.90;;;;;;5008186;28;20053;-82
2021/07/11 05:20:22;;;;;;;105.18;12.95;;;14.20;99.90;;;;;;5008436;28;20041;-82
2021/07/11 05:22:49;;;;;;;134.55;13.23;;;14.20;99.90;;;;;;5021193;28;20045;-83
2021/07/11 05:25:16;;;;;;;147.48;13.80;;;14.20;99.90;;;;;;5014782;28;20104;-83
2021/07/11 05:27:43;;;;;;;65.78;13.98;;;14.20;99.90;;;;;;5010654;28;20048;-83
2021/07/11 05:30:10;;;;;;;220.00;15.30;;;14.20;99.90;;;;;;5027913;28;20040;-83
2021/07/11 05:32:37;;;;;;;126.03;14.57;;;14.30;99.90;;;;;;5011881;28;20050;-83
2021/07/11 05:35:05;;;;;;;166.45;13.95;;;14.30;99.90;;;;;;5027984;28;20042;-83
2021/07/11 05:37:32;;;;;;;166.55;14.38;;;14.30;99.90;;;;;;5012124;28;20053;-82
2021/07/11 05:39:59;;;;;;;125.68;14.07;;;14.30;99.90;;;;;;5034853;28;20140;-83
2021/07/11 05:42:26;;;;;;;124.25;13.52;;;14.30;99.90;;;;;;5018361;28;20415;-83
2021/07/11 05:44:53;;;;;;;156.40;15.02;;;14.30;99.90;;;;;;5027501;28;20049;-83
2021/07/11 05:47:20;;;;;;;187.30;13.88;;;14.30;99.90;;;;;;5029237;28;20049;-83
2021/07/11 05:49:47;;;;;;;226.75;15.88;;;14.30;99.90;;;;;;5010119;28;20033;-83
2021/07/11 05:52:18;;;;;;;52.00;14.07;;;14.30;99.90;;;;;;5011157;28;20053;-83
2021/07/11 05:54:45;;;;;;;132.05;15.10;;;14.30;99.90;;;;;;5013327;28;20057;-83
2021/07/11 05:57:12;;;;;;;120.43;15.35;;;14.40;99.90;;;;;;5009437;28;20399;-83
2021/07/11 05:59:39;;;;;;;88.22;14.20;;;14.40;99.90;;;;;;5027998;28;20050;-83
2021/07/11 06:02:07;;;;;;;37.35;14.45;;;14.40;99.90;;;;;;5012274;28;20323;-83
2021/07/11 06:04:34;;;;;;;102.43;14.85;;;14.40;99.90;;;;;;5011181;28;20049;-83
2021/07/11 06:07:01;;;;;;;25.10;13.90;;;14.40;99.90;;;;;;5028915;28;20037;-83
2021/07/11 06:09:28;;;;;;;18.30;13.50;;;14.50;99.90;;;;;;5011132;28;20034;-83
2021/07/11 06:11:55;;;;;;;19.85;13.45;;;14.50;99.90;;;;;;5011464;28;20050;-84
2021/07/11 06:14:22;;;;;;;21.52;14.32;;;14.50;99.90;;;;;;5014603;28;20056;-83
2021/07/11 06:16:49;;;;;;;18.55;13.52;;;14.60;99.90;;;;;;5016992;28;20046;-83
2021/07/11 06:19:18;;;;;;;24.77;14.63;;;14.60;99.90;;;;;;5035958;28;20037;-83
2021/07/11 06:21:44;;;;;;;23.52;15.00;;;14.60;99.90;;;;;;5016697;28;20091;-84
2021/07/11 06:24:11;;;;;;;22.23;14.93;;;14.60;99.90;;;;;;5025121;28;20049;-83
2021/07/11 06:26:38;;;;;;;21.35;14.50;;;14.70;99.90;;;;;;5029607;28;20053;-83
2021/07/11 06:29:05;;;;;;;20.67;14.68;;;14.70;99.90;;;;;;5014915;28;20048;-83
2021/07/11 06:31:32;;;;;;;19.83;14.23;;;14.70;99.90;;;;;;5018469;28;20115;-83
2021/07/11 06:34:00;;;;;;;19.35;13.70;;;14.70;99.90;;;;;;5027178;28;20112;-83
2021/07/11 06:36:27;;;;;;;22.83;14.05;;;14.80;99.90;;;;;;5000655;28;20487;-83
2021/07/11 06:38:54;;;;;;;16.35;11.65;;;14.80;99.90;;;;;;4990967;28;20105;-83
2021/07/11 06:41:21;;;;;;;14.63;12.35;;;14.80;99.90;;;;;;4997495;28;20053;-83
2021/07/11 06:43:48;;;;;;;15.05;11.80;;;14.80;99.90;;;;;;5013454;28;20042;-83
2021/07/11 06:46:15;;;;;;;15.55;12.55;;;14.90;99.90;;;;;;4994596;28;20046;-83
2021/07/11 06:48:42;;;;;;;16.13;12.13;;;14.90;99.90;;;;;;4995190;28;20379;-84
2021/07/11 06:51:09;;;;;;;14.70;11.25;;;14.90;99.90;;;;;;4994321;28;20041;-83
2021/07/11 06:53:38;;;;;;;13.57;11.77;;;14.90;99.90;;;;;;4997428;28;20058;-83
2021/07/11 06:56:05;;;;;;;17.50;12.10;;;15.00;99.90;;;;;;5013155;28;20053;-83
2021/07/11 06:58:32;;;;;;;17.05;12.20;;;15.00;99.90;;;;;;4995052;28;20479;-84
2021/07/11 07:01:00;;;;;;;13.27;11.23;;;15.10;99.90;;;;;;4993992;28;20054;-83
2021/07/11 07:03:27;;;;;;;14.68;11.70;;;15.20;99.90;;;;;;4990595;28;20044;-83
2021/07/11 07:05:54;;;;;;;12.88;10.35;;;15.30;99.90;;;;;;4982221;28;20383;-83
2021/07/11 07:08:24;;;;;;;16.13;11.43;;;15.40;99.90;;;;;;4992895;28;20484;-83
2021/07/11 07:10:51;;;;;;;12.32;10.98;;;15.40;99.90;;;;;;5012354;28;20042;-83
2021/07/11 07:13:20;;;;;;;14.52;10.35;;;15.50;99.90;;;;;;4995827;28;20038;-83
2021/07/11 07:15:47;;;;;;;13.52;10.43;;;15.70;99.90;;;;;;4994344;28;20389;-83
2021/07/11 07:18:14;;;;;;;15.20;10.35;;;15.80;99.90;;;;;;4995599;28;20050;-83
2021/07/11 07:20:41;;;;;;;11.35;9.77;;;15.80;99.90;;;;;;4993262;28;20054;-83
2021/07/11 07:23:08;;;;;;;10.88;9.75;;;15.90;99.90;;;;;;5005981;28;20048;-84
2021/07/11 07:25:35;;;;;;;11.13;8.90;;;16.00;99.90;;;;;;4992492;28;20046;-84
2021/07/11 07:28:02;;;;;;;12.50;9.18;;;16.10;99.90;;;;;;4998607;28;20542;-83
2021/07/11 07:30:29;;;;;;;15.45;9.20;;;16.20;99.90;;;;;;5004856;28;20049;-84
2021/07/11 07:32:56;;;;;;;9.00;7.95;;;16.30;99.90;;;;;;4993513;28;20045;-83
2021/07/11 07:35:23;;;;;;;9.93;7.88;;;16.50;99.90;;;;;;5024606;28;20395;-83
2021/07/11 07:37:50;;;;;;;8.07;7.15;;;16.70;99.90;;;;;;5019754;28;20683;-83
2021/07/11 07:40:19;;;;;;;8.15;7.43;;;16.90;99.90;;;;;;5020565;28;20049;-84
2021/07/11 07:42:47;;;;;;;10.85;7.10;;;17.00;99.90;;;;;;5012483;28;20045;-84
2021/07/11 07:45:15;;;;;;;8.05;6.30;;;17.10;99.90;;;;;;5009456;28;20046;-83
2021/07/11 07:47:42;;;;;;;7.32;5.95;;;17.20;99.90;;;;;;5030915;28;20094;-83
2021/07/11 07:50:12;;;;;;;6.40;5.75;;;17.20;99.90;;;;;;5018847;28;20360;-84
2021/07/11 07:52:39;;;;;;;6.95;6.07;;;17.30;99.90;;;;;;5014960;28;20052;-84
2021/07/11 07:55:07;;;;;;;7.13;5.90;;;17.30;99.90;;;;;;5013581;28;20045;-84
2021/07/11 07:57:35;;;;;;;9.23;5.43;;;17.40;99.90;;;;;;5012270;28;20048;-84
2021/07/11 08:00:09;;;;;;;6.70;5.75;;;17.50;99.90;;;;;;5014847;28;20107;-84
2021/07/11 08:02:36;;;;;;;6.40;5.32;;;17.60;99.90;;;;;;5030604;28;20151;-84
2021/07/11 08:05:04;;;;;;;5.63;4.75;;;17.60;99.90;;;;;;5011138;28;20112;-84
2021/07/11 08:07:31;;;;;;;5.88;4.70;;;17.70;99.90;;;;;;5030743;28;20124;-83
2021/07/11 08:09:58;;;;;;;6.07;5.05;;;17.70;99.90;;;;;;5014370;28;20052;-85
2021/07/11 08:12:25;;;;;;;5.10;4.60;;;17.90;99.90;;;;;;5011916;28;20049;-83
2021/07/11 08:14:52;;;;;;;6.38;4.43;;;17.90;99.90;;;;;;5030550;28;20042;-83
2021/07/11 08:17:19;;;;;;;5.03;4.20;;;18.00;99.90;;;;;;4996390;28;20041;-83
2021/07/11 08:19:46;;;;;;;5.85;4.65;;;17.90;99.90;;;;;;5015489;28;20049;-84
2021/07/11 08:22:13;;;;;;;5.78;4.50;;;17.90;99.90;;;;;;5011195;28;20053;-84
2021/07/11 08:24:40;;;;;;;8.15;4.72;;;17.80;99.90;;;;;;5011208;28;20045;-83
2021/07/11 08:27:07;;;;;;;5.95;4.63;;;17.80;99.90;;;;;;5012434;28;20132;-83
2021/07/11 08:29:34;;;;;;;7.20;4.53;;;17.90;99.90;;;;;;5024846;28;20052;-84
2021/07/11 08:32:01;;;;;;;5.30;4.32;;;17.90;99.90;;;;;;5013932;28;20056;-83
2021/07/11 08:34:28;;;;;;;5.88;4.38;;;18.00;99.90;;;;;;5012015;28;20103;-83
2021/07/11 08:36:59;;;;;;;6.05;4.68;;;18.00;99.90;;;;;;5012960;28;20563;-84
2021/07/11 08:39:29;;;;;;;6.05;4.50;;;18.00;99.90;;;;;;5010494;28;20421;-83
2021/07/11 08:41:57;;;;;;;5.90;4.25;;;18.10;99.90;;;;;;5009567;28;20045;-83
2021/07/11 08:44:25;;;;;;;8.10;4.80;;;18.20;99.90;;;;;;5012451;28;20076;-84
2021/07/11 08:46:53;;;;;;;5.60;4.50;;;18.30;99.90;;;;;;5011687;28;20304;-83
2021/07/11 08:49:23;;;;;;;5.33;4.40;;;18.20;99.90;;;;;;5003371;28;20050;-84
2021/07/11 08:51:56;;;;;;;5.70;4.50;;;18.30;99.90;;;;;;5006995;28;20343;-83
2021/07/11 08:54:24;;;;;;;5.03;4.03;;;18.30;99.90;;;;;;5009435;28;20053;-83
2021/07/11 08:56:57;;;;;;;4.45;3.92;;;18.30;99.90;;;;;;5030971;28;20076;-84
2021/07/11 08:59:27;;;;;;;4.78;4.32;;;18.40;99.90;;;;;;5022234;28;20466;-84
2021/07/11 09:01:55;;;;;;;4.82;3.60;;;18.50;99.90;;;;;;5014607;28;20483;-84
2021/07/11 09:04:23;;;;;;;4.97;3.47;;;18.60;99.90;;;;;;5030256;28;20057;-84
2021/07/11 09:06:54;;;;;;;5.20;3.50;;;18.80;99.90;;;;;;5014418;28;20423;-84
2021/07/11 09:09:29;;;;;;;5.55;3.45;;;18.80;99.90;;;;;;4999093;28;20326;-83
2021/07/11 09:12:08;;;;;;;3.70;3.30;;;18.80;99.90;;;;;;5023346;28;20042;-83
2021/07/11 09:14:55;;;;;;;5.43;3.58;;;18.80;99.90;;;;;;5000220;28;20046;-83
2021/07/11 09:17:22;;;;;;;4.85;3.28;;;18.80;99.90;;;;;;5014681;28;20053;-84
2021/07/11 09:19:51;;;;;;;4.13;3.20;;;18.80;99.90;;;;;;5037358;28;20045;-84
2021/07/11 09:22:23;;;;;;;6.50;3.22;;;18.90;99.90;;;;;;5024755;28;20048;-83
2021/07/11 09:24:53;;;;;;;4.57;3.20;;;19.00;99.90;;;;;;5009950;28;20046;-83
2021/07/11 09:27:31;;;;;;;3.38;2.70;;;19.00;99.90;;;;;;5011982;28;20046;-84
2021/07/11 09:30:00;;;;;;;6.35;3.50;;;19.00;99.90;;;;;;5010932;28;20964;-84
2021/07/11 09:32:43;;;;;;;4.20;2.85;;;19.00;99.90;;;;;;5044881;28;20502;-83
2021/07/11 09:35:26;;;;;;;3.63;2.95;;;19.10;99.90;;;;;;5018726;28;20045;-84
2021/07/11 09:37:56;;;;;;;6.15;3.20;;;19.20;99.90;;;;;;5010303;28;20426;-84
2021/07/11 09:40:24;;;;;;;3.20;2.78;;;19.20;99.90;;;;;;5011428;28;20049;-83
2021/07/11 09:42:55;;;;;;;4.65;2.92;;;19.20;99.90;;;;;;5024435;28;20052;-84
2021/07/11 09:45:28;;;;;;;4.53;3.22;;;19.20;99.90;;;;;;5012121;28;20038;-84
2021/07/11 09:48:03;;;;;;;3.03;2.70;;;19.40;99.90;;;;;;5014265;28;20398;-84
2021/07/11 09:50:30;;;;;;;4.95;2.80;;;19.60;99.90;;;;;;5033368;28;20050;-83
2021/07/11 09:52:59;;;;;;;3.58;2.78;;;19.70;99.90;;;;;;5006794;28;20050;-83
2021/07/11 09:55:27;;;;;;;5.65;3.30;;;19.80;99.90;;;;;;5030587;28;20049;-84
2021/07/11 09:57:59;;;;;;;8.13;3.28;;;19.80;99.90;;;;;;5017021;28;20056;-83
2021/07/11 10:00:31;;;;;;;5.13;3.17;;;19.90;99.90;;;;;;5012109;28;20041;-84
2021/07/11 10:03:05;;;;;;;3.72;2.63;;;19.90;99.90;;;;;;5014876;28;20041;-84
2021/07/11 10:05:34;;;;;;;4.88;3.00;;;20.00;99.90;;;;;;5030482;28;20041;-84
2021/07/11 10:08:01;;;;;;;5.22;2.60;;;20.00;99.90;;;;;;5033760;28;20053;-84
2021/07/11 10:10:30;;;;;;;5.00;2.80;;;20.10;99.90;;;;;;5017571;28;20042;-84
2021/07/11 10:12:58;;;;;;;3.05;2.67;;;20.10;99.90;;;;;;5014551;28;20049;-84
2021/07/11 10:15:28;;;;;;;4.60;3.30;;;20.10;99.90;;;;;;5025369;28;20049;-84
2021/07/11 10:18:07;;;;;;;3.33;2.30;;;20.10;99.90;;;;;;5024507;28;20041;-83
2021/07/11 10:20:37;;;;;;;3.28;2.60;;;20.00;99.90;;;;;;4999418;28;20365;-84
2021/07/11 10:23:06;;;;;;;4.00;2.40;;;19.90;99.90;;;;;;5037737;28;20056;-84
2021/07/11 10:25:35;;;;;;;4.68;3.33;;;19.90;99.90;;;;;;5013492;28;20415;-84
2021/07/11 10:28:12;;;;;;;;;;;19.90;99.90;;;;;;5014304;28;20045;-84
2021/07/11 10:30:42;;;;;;;3.33;2.73;;;20.00;99.90;;;;;;5014506;28;20262;-84
2021/07/11 10:33:16;;;;;;;8.38;5.22;;;19.90;99.90;;;;;;5014894;28;20065;-84
2021/07/11 10:35:57;;;;;;;4.40;2.58;;;19.90;99.90;;;;;;5027002;28;20060;-84
2021/07/11 10:38:43;;;;;;;12.98;10.93;;;19.80;99.90;;;;;;5015610;28;20045;-84
2021/07/11 10:41:14;;;;;;;10.75;9.30;;;19.70;99.90;;;;;;5031052;28;20061;-84
2021/07/11 10:43:44;;;;;;;3.67;2.60;;;19.60;99.90;;;;;;5034638;28;20048;-84
2021/07/11 10:46:12;;;;;;;3.63;2.80;;;19.50;99.90;;;;;;5009876;28;20494;-84
2021/07/11 10:48:39;;;;;;;3.47;3.00;;;19.50;99.90;;;;;;5033438;28;20506;-84
2021/07/11 10:51:16;;;;;;;3.55;2.50;;;19.50;99.90;;;;;;5010892;28;20068;-84
2021/07/11 10:53:43;;;;;;;3.60;2.30;;;19.60;99.90;;;;;;5014255;28;20392;-84
2021/07/11 10:56:19;;;;;;;4.82;2.47;;;19.80;99.90;;;;;;5014622;28;20053;-84
2021/07/11 10:58:47;;;;;;;3.08;2.40;;;19.90;99.90;;;;;;5043454;28;20394;-84
2021/07/11 11:01:19;;;;;;;4.88;2.53;;;20.00;99.90;;;;;;5034572;28;20076;-84
2021/07/11 11:03:49;;;;;;;3.95;2.55;;;20.10;99.90;;;;;;5033343;28;20048;-84
2021/07/11 11:06:18;;;;;;;2.72;2.40;;;20.10;99.90;;;;;;5014015;28;20041;-84
2021/07/11 11:08:47;;;;;;;5.78;2.70;;;20.10;99.90;;;;;;5011738;28;21891;-84
2021/07/11 11:11:15;;;;;;;4.80;2.45;;;20.10;99.90;;;;;;5009750;28;20056;-84
2021/07/11 11:13:42;;;;;;;4.80;2.70;;;20.00;99.90;;;;;;5009730;28;20509;-84
2021/07/11 11:16:20;;;;;;;3.03;2.63;;;20.00;99.90;;;;;;5017252;28;20060;-84
2021/07/11 11:18:53;;;;;;;4.93;2.53;;;19.90;99.90;;;;;;5023104;28;20475;-84
2021/07/11 11:21:22;;;;;;;2.53;2.15;;;19.90;99.90;;;;;;5029653;28;20364;-84
2021/07/11 11:23:54;;;;;;;4.78;2.63;;;19.80;99.90;;;;;;5030419;28;20045;-84
2021/07/11 11:26:25;;;;;;;4.85;2.58;;;19.90;99.90;;;;;;5023238;28;20044;-84
2021/07/11 11:28:57;;;;;;;3.50;2.47;;;19.90;99.90;;;;;;5035576;28;20049;-84
2021/07/11 11:31:30;;;;;;;3.65;2.40;;;20.00;99.90;;;;;;5016894;28;20049;-84
2021/07/11 11:34:05;;;;;;;4.57;2.50;;;20.10;99.90;;;;;;5026606;28;20146;-83
2021/07/11 11:36:36;;;;;;;4.75;2.28;;;20.20;99.90;;;;;;5031615;28;20046;-84
2021/07/11 11:39:09;;;;;;;2.30;1.83;;;20.30;99.90;;;;;;5011537;28;20038;-84
2021/07/11 11:41:37;;;;;;;2.63;2.42;;;20.50;99.90;;;;;;5003056;28;20060;-84
2021/07/11 11:44:08;;;;;;;2.88;2.15;;;20.60;99.90;;;;;;5021915;28;20050;-84
2021/07/11 11:46:35;;;;;;;2.42;2.05;;;20.70;99.90;;;;;;5030125;28;20052;-84
2021/07/11 11:49:09;;;;;;;3.67;2.10;;;20.70;99.90;;;;;;5018088;28;20435;-84
2021/07/11 11:51:41;;;;;;;3.30;2.13;;;20.80;99.90;;;;;;5013305;28;20052;-83
2021/07/11 11:54:08;;;;;;;4.18;2.20;;;20.80;99.90;;;;;;5033338;28;20068;-84
2021/07/11 11:56:37;;;;;;;4.57;2.10;;;20.90;99.90;;;;;;5025749;28;20565;-84
2021/07/11 11:59:05;;;;;;;3.40;2.25;;;21.00;99.90;;;;;;5031277;28;20134;-84
2021/07/11 12:01:35;;;;;;;5.53;2.03;;;21.10;99.90;;;;;;5017030;28;20068;-84
2021/07/11 12:04:11;;;;;;;4.10;2.13;;;21.10;99.90;;;;;;5015106;28;20299;-84
2021/07/11 12:06:39;;;;;;;2.65;2.10;;;21.20;99.90;;;;;;5021729;28;20042;-84
2021/07/11 12:09:07;;;;;;;2.90;1.98;;;21.10;99.90;;;;;;5022775;28;20057;-84
2021/07/11 12:11:35;;;;;;;2.28;2.00;;;21.20;99.90;;;;;;5026132;28;20048;-84
2021/07/11 12:14:07;;;;;;;4.07;2.13;;;21.30;99.90;;;;;;5036252;28;20129;-84
2021/07/11 12:16:34;;;;;;;2.30;2.00;;;21.30;99.90;;;;;;5011917;28;20136;-84
2021/07/11 12:19:06;;;;;;;3.23;2.07;;;21.30;99.90;;;;;;5037900;28;20045;-84
2021/07/11 12:21:36;;;;;;;4.55;2.40;;;21.30;99.90;;;;;;5013139;28;20288;-84
2021/07/11 12:24:16;;;;;;;4.13;2.30;;;21.30;99.90;;;;;;5016925;28;20050;-84
2021/07/11 12:26:49;;;;;;;3.30;2.10;;;21.30;99.90;;;;;;5009374;28;20042;-84
2021/07/11 12:29:25;;;;;;;3.25;2.13;;;21.30;99.90;;;;;;5009123;28;20510;-84
2021/07/11 12:32:01;;;;;;;2.22;1.90;;;21.30;99.90;;;;;;5016038;28;20395;-84
2021/07/11 12:34:28;;;;;;;4.00;2.30;;;21.20;99.90;;;;;;5030170;28;20127;-84
2021/07/11 12:37:00;;;;;;;3.92;2.20;;;21.10;99.90;;;;;;5030689;28;20049;-84
2021/07/11 12:39:36;;;;;;;4.55;2.03;;;21.10;99.90;;;;;;5016489;28;20069;-84
2021/07/11 12:42:18;;;;;;;4.47;2.42;;;21.10;99.90;;;;;;5012821;28;20053;-84
2021/07/11 12:44:46;;;;;;;5.65;2.35;;;21.20;99.90;;;;;;5013286;28;20487;-84
2021/07/11 12:47:15;;;;;;;2.72;2.00;;;21.30;99.90;;;;;;5009621;28;20113;-84